Latest Weather Observations for Avalon

IDV60901

Issued at 11:51 am EST Wednesday 21 April 2021 (issued every 10 minutes, with the page automatically refreshed every 10 minutes)

About weather observations | Map of Melbourne area stations | Latest observations for Melbourne area | Other Formats
Station Details ID: 087113 Name: AVALON AIRPORT Lat: -38.03 Lon: 144.48 Height: 10.6 m
Data from the previous 72 hours. | See also: Recent months at Avalon
Date/Time
EST
Temp
°C
App
Temp
°C
Dew
Point
°C
Rel
Hum
%
Delta-T
°C
Wind Press
QNH
hPa
Press
MSL
hPa
Rain since
9am
mm
Dir  Spd
km/h
Gust
km/h
Spd
kts
Gust
kts
21/11:30am 13.8 9.3 4.4 53 4.3 W 17 24 9 13 1018.0 1018.0 0.0
21/11:00am 12.9 8.1 4.6 57 3.8 W 19 28 10 15 1018.2 1018.2 0.0
21/10:30am 12.0 6.9 4.0 58 3.6 W 20 24 11 13 1018.3 1018.3 0.0
21/10:00am 11.7 7.4 5.3 65 2.9 W 17 20 9 11 1018.5 1018.5 0.0
21/09:30am 11.0 6.5 6.0 71 2.3 WNW 19 24 10 13 1018.7 1018.7 0.0
21/09:00am 9.7 4.9 5.5 75 1.9 WNW 20 26 11 14 1018.8 1018.8 3.4
21/08:30am 8.5 3.6 4.9 78 1.6 WNW 20 24 11 13 1018.9 1018.9 3.4
21/08:00am 7.1 2.0 4.2 82 1.2 WNW 20 26 11 14 1018.7 1018.7 3.4
21/07:30am 6.6 1.5 4.3 85 1.0 W 20 24 11 13 1018.5 1018.5 3.4
21/07:00am 5.2 0.2 3.4 88 0.7 WNW 19 20 10 11 1018.2 1018.2 3.4
21/06:30am 5.4 1.1 3.4 87 0.8 WNW 15 19 8 10 1018.0 1018.0 3.4
21/06:00am 5.4 1.1 3.3 86 0.9 WNW 15 20 8 11 1017.6 1017.6 3.4
21/05:30am 5.3 0.6 3.3 87 0.8 WNW 17 20 9 11 1017.5 1017.5 3.4
21/05:00am 5.8 1.6 3.6 86 0.9 WNW 15 19 8 10 1017.4 1017.4 3.4
21/04:30am 6.0 1.5 4.0 87 0.8 WNW 17 20 9 11 1017.3 1017.3 3.4
21/04:00am 6.3 2.1 4.0 85 1.0 WNW 15 19 8 10 1017.1 1017.1 3.4
21/03:30am 6.2 1.7 4.0 86 0.9 W 17 20 9 11 1017.1 1017.1 3.4
21/03:00am 5.9 1.3 3.7 86 0.9 W 17 24 9 13 1017.1 1017.1 3.4
21/02:30am 5.8 1.2 3.8 87 0.8 WNW 17 20 9 11 1017.1 1017.1 3.4
21/02:00am 6.4 1.5 4.1 85 1.0 WNW 19 20 10 11 1017.2 1017.2 3.4
21/01:30am 6.8 2.4 4.6 86 1.0 WNW 17 24 9 13 1017.1 1017.1 3.4
21/01:00am 5.6 1.4 3.6 87 0.8 WNW 15 19 8 10 1017.0 1017.0 3.4
21/12:30am 6.4 1.5 4.1 85 1.0 W 19 24 10 13 1016.8 1016.8 3.4
21/12:00am 6.6 1.8 4.6 87 0.9 W 19 22 10 12 1016.8 1016.8 3.4
 
Date/Time
EST
Temp
°C
App
Temp
°C
Dew
Point
°C
Rel
Hum
%
Delta-T
°C
Wind Press
QNH
hPa
Press
MSL
hPa
Rain since
9am
mm
Dir  Spd
km/h
Gust
km/h
Spd
kts
Gust
kts
20/11:30pm 6.0 1.5 4.3 89 0.7 W 17 19 9 10 1016.8 1016.8 3.4
20/11:00pm 6.0 1.9 4.2 88 0.8 W 15 17 8 9 1016.8 1016.8 3.4
20/10:30pm 7.2 3.6 4.9 85 1.0 W 13 17 7 9 1016.8 1016.8 3.4
20/10:00pm 6.8 3.2 5.0 88 0.8 W 13 20 7 11 1016.8 1016.8 3.0
20/09:30pm 6.2 2.4 4.0 86 0.9 WNW 13 15 7 8 1016.4 1016.4 3.0
20/09:00pm 6.6 2.8 4.1 84 1.1 WNW 13 15 7 8 1016.2 1016.2 3.0
20/08:30pm 7.5 4.2 4.3 80 1.4 WNW 11 15 6 8 1015.9 1015.9 3.0
20/08:00pm 8.9 4.7 5.6 80 1.5 SW 17 24 9 13 1015.8 1015.8 3.0
20/07:43pm 9.6 4.4 5.6 76 1.8 WSW 22 46 12 25 1015.8 1015.8 2.8
20/07:30pm 9.4 4.6 4.8 73 2.1 WSW 19 26 10 14 1015.5 1015.5 2.8
20/07:00pm 9.6 4.6 6.3 80 1.5 SW 22 33 12 18 1015.3 1015.3 2.8
20/06:30pm 9.9 6.2 6.3 78 1.7 WSW 15 20 8 11 1014.5 1014.5 2.8
20/06:00pm 10.6 6.1 6.9 78 1.7 SW 20 26 11 14 1014.1 1014.1 2.8
20/05:30pm 10.9 5.6 6.8 76 1.9 SW 24 32 13 17 1013.7 1013.7 2.8
20/05:00pm 11.0 6.0 7.9 81 1.5 WSW 24 33 13 18 1013.6 1013.6 2.8
20/04:30pm 10.7 4.5 7.8 82 1.4 SW 30 39 16 21 1012.9 1012.9 2.6
20/04:00pm 11.4 6.6 8.8 84 1.3 SW 24 32 13 17 1012.3 1012.3 2.4
20/03:37pm 11.0 5.5 9.3 89 0.8 SW 28 37 15 20 1012.0 1012.0 2.4
20/03:30pm 10.9 5.2 9.7 92 0.6 SW 30 39 16 21 1012.0 1012.0 2.4
20/03:27pm 11.0 4.9 9.8 92 0.6 SW 32 41 17 22 1011.9 1011.9 2.4
20/03:00pm 11.5 5.2 8.9 84 1.3 SW 32 43 17 23 1011.3 1011.3 1.8
20/02:30pm 12.5 8.5 9.1 80 1.7 SW 20 28 11 15 1011.0 1011.0 1.8
20/02:00pm 12.1 8.5 9.7 85 1.2 W 19 24 10 13 1010.8 1010.8 1.8
20/01:30pm 11.8 7.9 9.5 86 1.2 W 20 24 11 13 1010.7 1010.7 1.8
20/01:00pm 11.9 8.2 10.1 89 0.9 W 20 26 11 14 1010.9 1010.9 1.8
20/12:30pm 11.8 8.3 10.2 90 0.8 W 19 24 10 13 1011.0 1011.0 1.8
20/12:00pm 11.8 8.1 10.2 90 0.8 WNW 20 26 11 14 1011.2 1011.2 1.2
20/11:30am 12.1 9.5 10.8 92 0.7 WNW 15 17 8 9 1011.5 1011.5 0.4
20/11:00am 12.3 9.3 10.7 90 0.8 W 17 26 9 14 1011.7 1011.7 0.4
20/10:30am 12.4 7.0 9.6 83 1.4 WSW 28 41 15 22 1011.7 1011.7 0.0
20/10:00am 13.3 6.3 8.6 73 2.4 WSW 35 44 19 24 1011.0 1011.0 0.0
20/09:30am 14.9 7.3 7.5 61 3.7 W 37 50 20 27 1010.4 1010.4 0.0
20/09:29am 15.1 7.4 7.2 59 3.9 WNW 37 50 20 27 1010.4 1010.4 0.0
20/09:26am 17.0 9.3 7.1 52 4.9 NW 37 54 20 29 1010.3 1010.3 0.0
20/09:17am 17.8 10.5 7.0 49 5.4 NW 35 54 19 29 1009.7 1009.7 0.0
20/09:00am 17.2 11.3 7.3 52 5.0 NW 28 39 15 21 1009.9 1009.9 0.0
20/08:30am 16.4 11.3 7.6 56 4.4 NNW 24 39 13 21 1009.9 1009.9 0.0
20/08:00am 13.9 10.2 8.1 68 2.9 N 17 24 9 13 1010.0 1010.0 0.0
20/07:30am 12.9 8.8 8.0 72 2.4 NNE 19 22 10 12 1009.8 1009.8 0.0
20/07:00am 12.9 9.2 8.0 72 2.4 N 17 22 9 12 1009.9 1009.9 0.0
20/06:30am 13.2 9.0 7.6 69 2.7 N 19 24 10 13 1009.9 1009.9 0.0
20/06:00am 13.7 8.6 7.7 67 3.0 N 24 30 13 16 1010.0 1010.0 0.0
20/05:30am 13.9 9.6 7.7 66 3.1 N 20 28 11 15 1010.0 1010.0 0.0
20/05:00am 14.0 9.8 7.3 64 3.3 N 19 20 10 11 1010.2 1010.2 0.0
20/04:30am 14.7 10.8 7.3 61 3.6 N 17 20 9 11 1010.3 1010.3 0.0
20/04:00am 14.9 10.4 7.0 59 3.9 N 20 26 11 14 1010.2 1010.2 0.0
20/03:30am 15.9 11.6 7.1 56 4.3 NNW 19 26 10 14 1010.5 1010.5 0.0
20/03:00am 15.4 11.8 6.9 57 4.2 N 15 20 8 11 1010.7 1010.7 0.0
20/02:30am 15.8 11.9 7.1 56 4.3 N 17 20 9 11 1010.9 1010.9 0.0
20/02:00am 15.6 11.3 7.1 57 4.2 N 19 22 10 12 1011.2 1011.2 0.0
20/01:30am 15.9 11.6 7.1 56 4.3 N 19 24 10 13 1011.5 1011.5 0.0
20/01:00am 16.3 12.1 7.3 55 4.5 NNW 19 24 10 13 1011.7 1011.7 0.0
20/12:30am 17.0 13.2 7.4 53 4.8 NNW 17 22 9 12 1011.9 1011.9 0.0
20/12:00am 17.3 13.1 7.4 52 5.0 NW 19 24 10 13 1012.1 1012.1 0.0
 
Date/Time
EST
Temp
°C
App
Temp
°C
Dew
Point
°C
Rel
Hum
%
Delta-T
°C
Wind Press
QNH
hPa
Press
MSL
hPa
Rain since
9am
mm
Dir  Spd
km/h
Gust
km/h
Spd
kts
Gust
kts
19/11:30pm 17.4 13.0 7.2 51 5.1 NNW 20 30 11 16 1012.3 1012.3 0.0
19/11:00pm 17.6 12.4 7.4 51 5.1 NNW 24 37 13 20 1012.4 1012.4 0.0
19/10:30pm 17.5 12.1 7.8 53 4.9 NNW 26 39 14 21 1012.5 1012.5 0.0
19/10:00pm 15.4 13.5 10.4 72 2.6 NNE 11 13 6 7 1012.9 1012.9 0.0
19/09:30pm 14.8 13.0 10.8 77 2.1 N 11 13 6 7 1013.0 1013.0 0.0
19/09:00pm 15.1 13.6 10.5 74 2.4 NW 9 9 5 5 1013.4 1013.4 0.0
19/08:30pm 15.3 13.4 10.5 73 2.5 WNW 11 13 6 7 1013.6 1013.6 0.0
19/08:00pm 16.3 13.7 10.6 69 3.0 W 15 20 8 11 1013.8 1013.8 0.0
19/07:30pm 17.0 14.4 9.2 60 4.0 WSW 13 15 7 8 1014.0 1014.0 0.0
19/07:00pm 17.5 14.7 8.6 56 4.6 NNW 13 20 7 11 1013.8 1013.8 0.0
19/06:30pm 17.8 14.2 8.4 54 4.8 NNW 17 20 9 11 1013.6 1013.6 0.0
19/06:00pm 18.2 14.2 8.2 52 5.1 NNW 19 26 10 14 1013.3 1013.3 0.0
19/05:30pm 18.6 14.8 7.7 49 5.6 NW 17 24 9 13 1013.1 1013.1 0.0
19/05:00pm 19.0 15.3 7.8 48 5.7 NW 17 24 9 13 1013.1 1013.1 0.0
19/04:30pm 19.2 14.1 7.6 47 5.9 NW 24 32 13 17 1013.2 1013.2 0.0
19/04:00pm 19.5 14.3 7.3 45 6.2 WNW 24 28 13 15 1013.3 1013.3 0.0
19/03:30pm 19.8 15.0 7.2 44 6.4 WNW 22 28 12 15 1013.5 1013.5 0.0
19/03:00pm 19.9 15.1 7.3 44 6.4 NW 22 30 12 16 1013.5 1013.5 0.0
19/02:30pm 19.9 15.5 7.3 44 6.4 WNW 20 28 11 15 1013.7 1013.7 0.0
19/02:00pm 19.9 14.6 7.0 43 6.5 WNW 24 32 13 17 1013.9 1013.9 0.0
19/01:30pm 20.0 14.8 7.1 43 6.6 WNW 24 33 13 18 1014.3 1014.3 0.0
19/01:00pm 20.0 14.4 7.1 43 6.5 NW 26 35 14 19 1014.7 1014.7 0.0
19/12:30pm 20.1 14.4 6.5 41 6.8 WNW 26 43 14 23 1015.3 1015.3 0.0
19/12:00pm 19.6 13.3 5.6 40 6.9 NW 28 39 15 21 1015.8 1015.8 0.0
19/11:30am 20.1 14.3 8.1 46 6.2 NW 28 41 15 22 1016.3 1016.3 0.0
19/11:00am 18.7 13.3 7.8 49 5.6 NW 26 35 14 19 1016.7 1016.7 0.0
19/10:30am 18.4 13.7 7.8 50 5.4 NW 22 32 12 17 1017.0 1017.0 0.0
19/10:00am 17.9 14.7 10.0 60 4.2 NNW 17 22 9 12 1017.3 1017.3 0.0
19/09:30am 14.9 11.5 9.1 68 3.0 NNW 17 22 9 12 1017.6 1017.6 0.0
19/09:00am 14.2 11.5 9.0 71 2.6 NNW 13 20 7 11 1017.9 1017.9 0.0
19/08:30am 14.2 11.2 9.4 73 2.5 NNW 15 24 8 13 1017.9 1017.9 0.0
19/08:00am 13.2 9.5 9.5 78 1.9 NW 19 24 10 13 1017.8 1017.8 0.0
19/07:30am 11.3 8.6 9.0 86 1.1 NNW 13 17 7 9 1017.5 1017.5 0.0
19/07:00am 9.2 6.2 7.5 89 0.8 NNW 13 15 7 8 1017.5 1017.5 0.0
19/06:30am 10.6 8.5 8.2 85 1.2 N 9 11 5 6 1017.5 1017.5 0.0
19/06:00am 9.9 7.7 7.7 86 1.1 N 9 9 5 5 1017.5 1017.5 0.0
19/05:30am 10.2 7.7 8.3 88 0.9 NNW 11 15 6 8 1017.4 1017.4 0.0
19/05:00am 10.0 7.5 8.1 88 0.9 NW 11 13 6 7 1017.3 1017.3 0.0
19/04:30am 10.7 8.0 8.8 88 0.9 NNW 13 19 7 10 1017.3 1017.3 0.0
19/04:00am 10.0 7.3 9.1 94 0.4 N 13 13 7 7 1017.6 1017.6 0.0
19/03:30am 8.8 6.3 8.0 95 0.4 N 11 11 6 6 1017.8 1017.8 0.0
19/03:00am 8.9 6.4 8.0 94 0.4 N 11 11 6 6 1017.9 1017.9 0.0
19/02:30am 9.5 7.5 8.6 94 0.4 N 9 11 5 6 1018.3 1018.3 0.0
19/02:00am 10.3 8.1 9.2 93 0.5 NNW 11 13 6 7 1018.7 1018.7 0.0
19/01:30am 10.5 8.4 9.6 94 0.5 NNW 11 13 6 7 1018.8 1018.8 0.0
19/01:00am 10.9 8.8 9.7 92 0.6 NNW 11 13 6 7 1019.0 1019.0 0.0
19/12:30am 10.8 8.3 9.6 92 0.6 N 13 13 7 7 1019.2 1019.2 0.0
19/12:00am 12.4 10.6 11.0 91 0.7 NNW 11 13 6 7 1019.4 1019.4 0.0
 
Date/Time
EST
Temp
°C
App
Temp
°C
Dew
Point
°C
Rel
Hum
%
Delta-T
°C
Wind Press
QNH
hPa
Press
MSL
hPa
Rain since
9am
mm
Dir  Spd
km/h
Gust
km/h
Spd
kts
Gust
kts
18/11:30pm 12.7 11.0 11.1 90 0.8 NNW 11 13 6 7 1019.6 1019.6 0.0
18/11:00pm 12.8 11.5 11.2 90 0.8 NNW 9 11 5 6 1019.8 1019.8 0.0
18/10:30pm 12.5 11.2 11.1 91 0.7 NNW 9 11 5 6 1020.0 1020.0 0.0
18/10:00pm 13.2 11.5 11.3 88 1.0 NW 11 13 6 7 1020.0 1020.0 0.0
18/09:30pm 14.0 12.1 11.7 86 1.2 WNW 13 17 7 9 1020.1 1020.1 0.0
18/09:00pm 13.9 12.0 11.9 88 1.1 WNW 13 15 7 8 1020.1 1020.1 0.0
18/08:30pm 13.9 11.9 11.6 86 1.2 WNW 13 17 7 9 1020.1 1020.1 0.0
18/08:00pm 14.0 11.7 11.7 86 1.2 NW 15 17 8 9 1020.3 1020.3 0.0
18/07:30pm 15.0 12.7 11.8 81 1.7 NW 15 17 8 9 1020.4 1020.4 0.0
18/07:00pm 15.6 13.8 12.0 79 2.0 NW 13 19 7 10 1020.4 1020.4 0.0
18/06:30pm 15.5 13.2 11.9 79 2.0 WNW 15 19 8 10 1020.5 1020.5 0.0
18/06:00pm 16.1 13.4 11.7 75 2.4 W 17 24 9 13 1020.1 1020.1 0.0
18/05:30pm 16.8 13.2 11.7 72 2.8 WSW 22 26 12 14 1019.9 1019.9 0.0
18/05:00pm 17.8 14.6 11.1 65 3.6 WNW 19 26 10 14 1019.7 1019.7 0.0
18/04:30pm 18.1 14.5 10.5 61 4.1 WNW 20 28 11 15 1019.8 1019.8 0.0
18/04:00pm 18.6 14.3 10.9 61 4.2 WNW 24 30 13 16 1019.8 1019.8 0.0
18/03:30pm 18.8 14.5 10.9 60 4.3 WNW 24 33 13 18 1019.9 1019.9 0.0
18/03:00pm 18.5 15.3 11.1 62 4.0 WNW 19 24 10 13 1019.9 1019.9 0.0
18/02:30pm 18.5 15.0 10.8 61 4.2 W 20 26 11 14 1020.0 1020.0 0.0
18/02:00pm 18.5 15.1 11.3 63 3.9 W 20 30 11 16 1020.3 1020.3 0.0
18/01:30pm 18.1 13.9 11.0 63 3.8 W 24 30 13 16 1020.7 1020.7 0.0
18/01:00pm 17.9 14.1 11.0 64 3.7 W 22 32 12 17 1021.0 1021.0 0.0
18/12:30pm 17.9 13.2 11.9 68 3.3 W 28 37 15 20 1021.6 1021.6 0.0
18/12:00pm 18.3 14.8 10.9 62 4.0 W 20 30 11 16 1021.9 1021.9 0.0

Latest Capital City Observations: Canberra | Sydney | Melbourne | Brisbane | Adelaide | Perth | Hobart | Darwin

Other formats

Comma delimited format used in spreadsheet applications
http://www.bom.gov.au/fwo/IDV60901/IDV60901.94854.axf

JavaScript Object Notation format (JSON) in row-major order
http://www.bom.gov.au/fwo/IDV60901/IDV60901.94854.json

Data quality

Most of these data are generated automatically and are frequently updated. Quality checks on data are not normally performed. It is possible for incorrect values to appear. Refer to information at About Latest Weather Observations and please check the disclaimer before using these data.